Hovedside
METAR-TAF:

METAR-TAF

Lufthavner :

Sarh, Tsjad

breddegrad: 09-09N, lengdegrad: 018-23E, høyde over havet: 365 m

Gjeldene værobservasjon

Denne rapporten ble laget for 1 time og 12 minutter siden, klokken 16:00 UTC
Vind 4 kt fra Øst
Temperatur 39°C
Luftfuktighet 5%
Trykk 1007 hPa
Sikt 10 km eller mer
ingen skyer under 1500 m og ingen bygeskyer

METAR: FTTA 311600Z 09004KT CAVOK 39/M08 Q1007

Tid: 18:12 (17:12 UTC)


TAF: fraværende

Værobservasjoner og værvarsel for over 4000 flyplasser (METAR- og TAF-rapporter).

Tilgjengelige stasjoner er representert av de røde og gule prikkene på kartet.

Hold musepekeren over prikken for å se navnet på stasjonen.

Klikk så for å se værobservasjoner og -varsler.

For å forandre kartet kan du klikke på den grønne knappen med svart kryss for å zoome inn, på den grønne knappen med strek for å zoome ut, eller på de grønne pilene for å se tilstøtende kart.


METAR-TAF: